sensor_id;sensor_type;location;lat;lon;timestamp;pressure;altitude;pressure_sealevel;temperature;humidity
35307;BME280;21420;52.196;21.416;2022-10-31T00:01:15;100608.66;;;7.37;64.72
35307;BME280;21420;52.196;21.416;2022-10-31T00:03:46;100607.52;;;7.38;64.80
35307;BME280;21420;52.196;21.416;2022-10-31T00:06:13;100611.11;;;7.36;64.78
35307;BME280;21420;52.196;21.416;2022-10-31T00:08:40;100605.23;;;7.32;65.33
35307;BME280;21420;52.196;21.416;2022-10-31T00:11:10;100605.23;;;7.32;65.33
35307;BME280;21420;52.196;21.416;2022-10-31T00:13:36;100610.87;;;7.24;64.75
35307;BME280;21420;52.196;21.416;2022-10-31T00:16:02;100613.45;;;7.18;64.75
35307;BME280;21420;52.196;21.416;2022-10-31T00:18:29;100614.94;;;7.13;64.88
35307;BME280;21420;52.196;21.416;2022-10-31T00:21:02;100617.66;;;7.13;64.93
35307;BME280;21420;52.196;21.416;2022-10-31T00:23:29;100597.27;;;6.99;64.73
35307;BME280;21420;52.196;21.416;2022-10-31T00:26:01;100597.27;;;6.99;64.73
35307;BME280;21420;52.196;21.416;2022-10-31T00:28:28;100617.16;;;7.11;64.96
35307;BME280;21420;52.196;21.416;2022-10-31T00:31:01;100615.00;;;7.10;64.99
35307;BME280;21420;52.196;21.416;2022-10-31T00:33:29;100616.16;;;7.06;64.94
35307;BME280;21420;52.196;21.416;2022-10-31T00:35:55;100612.06;;;7.06;65.06
35307;BME280;21420;52.196;21.416;2022-10-31T00:38:22;100620.80;;;7.06;65.09
35307;BME280;21420;52.196;21.416;2022-10-31T00:40:49;100621.66;;;7.04;65.10
35307;BME280;21420;52.196;21.416;2022-10-31T00:43:15;100621.16;;;7.02;65.15
35307;BME280;21420;52.196;21.416;2022-10-31T00:45:44;100622.34;;;6.98;65.13
35307;BME280;21420;52.196;21.416;2022-10-31T00:48:11;100619.97;;;6.94;65.12
35307;BME280;21420;52.196;21.416;2022-10-31T00:50:37;100627.94;;;6.91;65.15
35307;BME280;21420;52.196;21.416;2022-10-31T00:53:05;100627.43;;;6.88;65.19
35307;BME280;21420;52.196;21.416;2022-10-31T00:55:31;100625.33;;;6.85;65.22
35307;BME280;21420;52.196;21.416;2022-10-31T00:57:57;100634.86;;;6.85;65.24
35307;BME280;21420;52.196;21.416;2022-10-31T01:00:24;100630.50;;;6.84;65.28
35307;BME280;21420;52.196;21.416;2022-10-31T01:02:51;100637.31;;;6.84;65.33
35307;BME280;21420;52.196;21.416;2022-10-31T01:05:17;100637.88;;;6.84;65.36
35307;BME280;21420;52.196;21.416;2022-10-31T01:07:45;100641.77;;;6.80;65.29
35307;BME280;21420;52.196;21.416;2022-10-31T01:10:11;100649.84;;;6.72;65.12
35307;BME280;21420;52.196;21.416;2022-10-31T01:12:45;100652.16;;;6.64;65.14
35307;BME280;21420;52.196;21.416;2022-10-31T01:15:18;100642.48;;;6.58;65.22
35307;BME280;21420;52.196;21.416;2022-10-31T01:17:43;100647.66;;;6.57;65.24
35307;BME280;21420;52.196;21.416;2022-10-31T01:20:12;100649.12;;;6.52;65.27
35307;BME280;21420;52.196;21.416;2022-10-31T01:22:41;100643.79;;;6.47;65.23
35307;BME280;21420;52.196;21.416;2022-10-31T01:25:08;100644.08;;;6.45;65.31
35307;BME280;21420;52.196;21.416;2022-10-31T01:27:35;100645.44;;;6.45;65.39
35307;BME280;21420;52.196;21.416;2022-10-31T01:30:01;100638.70;;;6.43;65.38
35307;BME280;21420;52.196;21.416;2022-10-31T01:32:28;100639.26;;;6.42;65.45
35307;BME280;21420;52.196;21.416;2022-10-31T01:34:55;100638.41;;;6.44;65.52
35307;BME280;21420;52.196;21.416;2022-10-31T01:37:21;100641.69;;;6.44;65.54
35307;BME280;21420;52.196;21.416;2022-10-31T01:39:48;100635.12;;;6.45;65.58
35307;BME280;21420;52.196;21.416;2022-10-31T01:42:21;100634.88;;;6.44;65.62
35307;BME280;21420;52.196;21.416;2022-10-31T01:47:32;100638.70;;;6.43;65.66
35307;BME280;21420;52.196;21.416;2022-10-31T01:49:59;100637.39;;;6.40;65.67
35307;BME280;21420;52.196;21.416;2022-10-31T01:55:09;100641.63;;;6.33;65.62
35307;BME280;21420;52.196;21.416;2022-10-31T01:57:40;100641.14;;;6.28;65.66
35307;BME280;21420;52.196;21.416;2022-10-31T02:00:09;100638.47;;;6.25;65.65
35307;BME280;21420;52.196;21.416;2022-10-31T02:02:40;100637.94;;;6.26;65.71
35307;BME280;21420;52.196;21.416;2022-10-31T02:05:21;100641.23;;;6.23;65.73
35307;BME280;21420;52.196;21.416;2022-10-31T02:07:55;100643.41;;;6.23;65.74
35307;BME280;21420;52.196;21.416;2022-10-31T02:10:31;100643.41;;;6.23;65.77
35307;BME280;21420;52.196;21.416;2022-10-31T02:13:02;100647.30;;;6.20;65.74
35307;BME280;21420;52.196;21.416;2022-10-31T02:19:54;100647.97;;;6.12;65.71
35307;BME280;21420;52.196;21.416;2022-10-31T02:22:49;100643.94;;;6.09;65.80
35307;BME280;21420;52.196;21.416;2022-10-31T02:40:26;100649.66;;;5.91;65.78
35307;BME280;21420;52.196;21.416;2022-10-31T02:42:38;100653.51;;;5.88;65.79
35307;BME280;21420;52.196;21.416;2022-10-31T02:47:41;100651.06;;;5.89;65.92
35307;BME280;21420;52.196;21.416;2022-10-31T02:50:22;100648.39;;;5.86;65.89
35307;BME280;21420;52.196;21.416;2022-10-31T02:52:54;100655.01;;;5.80;65.76
35307;BME280;21420;52.196;21.416;2022-10-31T02:58:10;100652.16;;;5.71;65.80
35307;BME280;21420;52.196;21.416;2022-10-31T03:01:26;100656.55;;;5.70;65.85
35307;BME280;21420;52.196;21.416;2022-10-31T03:03:50;100654.16;;;5.66;65.88
35307;BME280;21420;52.196;21.416;2022-10-31T03:06:17;100656.65;;;5.62;65.90
35307;BME280;21420;52.196;21.416;2022-10-31T03:14:48;100657.25;;;5.59;66.01
35307;BME280;21420;52.196;21.416;2022-10-31T03:17:27;100661.38;;;5.56;66.04
35307;BME280;21420;52.196;21.416;2022-10-31T03:19:57;100662.97;;;5.57;66.10
35307;BME280;21420;52.196;21.416;2022-10-31T03:22:28;100660.58;;;5.53;66.04
35307;BME280;21420;52.196;21.416;2022-10-31T03:24:58;100660.58;;;5.53;66.09
35307;BME280;21420;52.196;21.416;2022-10-31T03:27:28;100663.61;;;5.52;66.11
35307;BME280;21420;52.196;21.416;2022-10-31T03:30:00;100663.34;;;5.51;66.09
35307;BME280;21420;52.196;21.416;2022-10-31T03:32:36;100665.55;;;5.49;66.06
35307;BME280;21420;52.196;21.416;2022-10-31T03:35:19;100662.83;;;5.49;66.17
35307;BME280;21420;52.196;21.416;2022-10-31T03:37:48;100669.89;;;5.50;66.18
35307;BME280;21420;52.196;21.416;2022-10-31T03:40:16;100667.97;;;5.50;66.20
35307;BME280;21420;52.196;21.416;2022-10-31T03:42:49;100673.36;;;5.53;66.30
35307;BME280;21420;52.196;21.416;2022-10-31T03:45:22;100673.88;;;5.55;66.36
35307;BME280;21420;52.196;21.416;2022-10-31T03:47:50;100674.16;;;5.53;66.27
35307;BME280;21420;52.196;21.416;2022-10-31T03:50:19;100681.84;;;5.49;66.25
35307;BME280;21420;52.196;21.416;2022-10-31T03:52:58;100688.95;;;5.45;66.16
35307;BME280;21420;52.196;21.416;2022-10-31T03:55:32;100689.84;;;5.40;66.15
35307;BME280;21420;52.196;21.416;2022-10-31T04:00:42;100690.52;;;5.32;66.17
35307;BME280;21420;52.196;21.416;2022-10-31T04:05:43;100685.41;;;5.28;66.26
35307;BME280;21420;52.196;21.416;2022-10-31T04:08:16;100688.96;;;5.26;66.25
35307;BME280;21420;52.196;21.416;2022-10-31T04:10:43;100696.83;;;5.27;66.29
35307;BME280;21420;52.196;21.416;2022-10-31T04:13:16;100694.44;;;5.23;66.24
35307;BME280;21420;52.196;21.416;2022-10-31T04:15:50;100694.16;;;5.22;66.28
35307;BME280;21420;52.196;21.416;2022-10-31T04:18:20;100689.56;;;5.20;66.30
35307;BME280;21420;52.196;21.416;2022-10-31T04:20:47;100695.27;;;5.21;66.33
35307;BME280;21420;52.196;21.416;2022-10-31T04:23:22;100694.72;;;5.21;66.33
35307;BME280;21420;52.196;21.416;2022-10-31T04:25:50;100700.14;;;5.21;66.35
35307;BME280;21420;52.196;21.416;2022-10-31T04:28:16;100701.77;;;5.23;66.41
35307;BME280;21420;52.196;21.416;2022-10-31T04:30:43;100703.94;;;5.23;66.41
35307;BME280;21420;52.196;21.416;2022-10-31T04:33:10;100705.25;;;5.26;66.48
35307;BME280;21420;52.196;21.416;2022-10-31T04:35:37;100705.02;;;5.25;66.43
35307;BME280;21420;52.196;21.416;2022-10-31T04:38:04;100711.48;;;5.26;66.52
35307;BME280;21420;52.196;21.416;2022-10-31T04:40:30;100709.61;;;5.24;66.46
35307;BME280;21420;52.196;21.416;2022-10-31T04:43:04;100706.33;;;5.27;66.57
35307;BME280;21420;52.196;21.416;2022-10-31T04:45:31;100706.05;;;5.26;66.53
35307;BME280;21420;52.196;21.416;2022-10-31T04:47:58;100705.77;;;5.28;66.56
35307;BME280;21420;52.196;21.416;2022-10-31T04:50:24;100705.30;;;5.23;66.48
35307;BME280;21420;52.196;21.416;2022-10-31T04:52:50;100706.12;;;5.21;66.49
35307;BME280;21420;52.196;21.416;2022-10-31T04:55:18;100713.47;;;5.20;66.48
35307;BME280;21420;52.196;21.416;2022-10-31T04:58:03;100714.87;;;5.18;66.46
35307;BME280;21420;52.196;21.416;2022-10-31T05:00:36;100717.06;;;5.16;66.49
35307;BME280;21420;52.196;21.416;2022-10-31T05:03:03;100721.94;;;5.16;66.52
35307;BME280;21420;52.196;21.416;2022-10-31T05:05:31;100722.50;;;5.16;66.54
35307;BME280;21420;52.196;21.416;2022-10-31T05:07:59;100723.58;;;5.15;66.54
35307;BME280;21420;52.196;21.416;2022-10-31T05:10:27;100726.25;;;5.17;66.64
35307;BME280;21420;52.196;21.416;2022-10-31T05:13:01;100724.38;;;5.18;66.68
35307;BME280;21420;52.196;21.416;2022-10-31T05:15:43;100729.80;;;5.15;66.60
35307;BME280;21420;52.196;21.416;2022-10-31T05:18:10;100728.17;;;5.17;66.75
35307;BME280;21420;52.196;21.416;2022-10-31T05:20:54;100731.92;;;5.21;66.81
35307;BME280;21420;52.196;21.416;2022-10-31T05:23:37;100723.22;;;5.21;66.81
35307;BME280;21420;52.196;21.416;2022-10-31T05:26:05;100723.74;;;5.24;66.89
35307;BME280;21420;52.196;21.416;2022-10-31T05:28:32;100725.37;;;5.25;66.90
35307;BME280;21420;52.196;21.416;2022-10-31T05:30:58;100727.53;;;5.25;66.95
35307;BME280;21420;52.196;21.416;2022-10-31T05:33:25;100735.36;;;5.27;66.94
35307;BME280;21420;52.196;21.416;2022-10-31T05:36:10;100728.89;;;5.25;66.93
35307;BME280;21420;52.196;21.416;2022-10-31T05:38:47;100729.97;;;5.24;66.95
35307;BME280;21420;52.196;21.416;2022-10-31T05:41:15;100731.64;;;5.23;66.94
35307;BME280;21420;52.196;21.416;2022-10-31T05:43:43;100734.36;;;5.23;66.95
35307;BME280;21420;52.196;21.416;2022-10-31T05:46:09;100732.17;;;5.22;66.91
35307;BME280;21420;52.196;21.416;2022-10-31T05:48:53;100738.51;;;5.15;66.69
35307;BME280;21420;52.196;21.416;2022-10-31T05:51:38;100742.55;;;5.17;66.93
35307;BME280;21420;52.196;21.416;2022-10-31T05:54:04;100741.67;;;5.22;67.08
35307;BME280;21420;52.196;21.416;2022-10-31T05:56:31;100738.64;;;5.26;67.10
35307;BME280;21420;52.196;21.416;2022-10-31T05:58:57;100738.32;;;5.30;67.11
35307;BME280;21420;52.196;21.416;2022-10-31T06:01:25;100742.14;;;5.29;66.91
35307;BME280;21420;52.196;21.416;2022-10-31T06:03:51;100749.70;;;5.32;67.04
35307;BME280;21420;52.196;21.416;2022-10-31T06:06:19;100752.58;;;5.41;67.19
35307;BME280;21420;52.196;21.416;2022-10-31T06:08:45;100754.14;;;5.47;67.25
35307;BME280;21420;52.196;21.416;2022-10-31T06:11:13;100758.89;;;5.55;67.33
35307;BME280;21420;52.196;21.416;2022-10-31T06:13:58;100753.58;;;5.67;67.41
35307;BME280;21420;52.196;21.416;2022-10-31T06:16:26;100761.80;;;5.80;67.46
35307;BME280;21420;52.196;21.416;2022-10-31T06:18:54;100763.58;;;5.90;67.49
35307;BME280;21420;52.196;21.416;2022-10-31T06:21:21;100760.16;;;6.01;67.52
35307;BME280;21420;52.196;21.416;2022-10-31T06:23:47;100763.70;;;6.18;67.66
35307;BME280;21420;52.196;21.416;2022-10-31T06:26:32;100766.93;;;6.36;67.72
35307;BME280;21420;52.196;21.416;2022-10-31T06:29:00;100767.48;;;6.52;67.71
35307;BME280;21420;52.196;21.416;2022-10-31T06:31:28;100767.72;;;6.70;67.76
35307;BME280;21420;52.196;21.416;2022-10-31T06:33:55;100761.38;;;6.88;67.80
35307;BME280;21420;52.196;21.416;2022-10-31T06:36:21;100759.78;;;7.01;67.71
35307;BME280;21420;52.196;21.416;2022-10-31T06:38:47;100766.69;;;7.09;67.64
35307;BME280;21420;52.196;21.416;2022-10-31T06:41:14;100758.80;;;7.22;67.69
35307;BME280;21420;52.196;21.416;2022-10-31T06:43:42;100762.22;;;7.41;67.80
35307;BME280;21420;52.196;21.416;2022-10-31T06:46:13;100763.88;;;7.65;67.93
35307;BME280;21420;52.196;21.416;2022-10-31T06:48:41;100760.95;;;7.86;67.95
35307;BME280;21420;52.196;21.416;2022-10-31T06:51:18;100763.44;;;8.53;68.41
35307;BME280;21420;52.196;21.416;2022-10-31T06:53:44;100768.14;;;8.92;68.60
35307;BME280;21420;52.196;21.416;2022-10-31T06:56:11;100768.14;;;8.92;68.60
35307;BME280;21420;52.196;21.416;2022-10-31T06:58:42;100766.88;;;9.27;68.35
35307;BME280;21420;52.196;21.416;2022-10-31T07:01:09;100768.48;;;9.74;68.57
35307;BME280;21420;52.196;21.416;2022-10-31T07:03:35;100766.63;;;10.33;68.86
35307;BME280;21420;52.196;21.416;2022-10-31T07:06:02;100771.50;;;11.22;69.44
35307;BME280;21420;52.196;21.416;2022-10-31T07:08:28;100767.25;;;12.11;69.07
35307;BME280;21420;52.196;21.416;2022-10-31T07:10:56;100765.16;;;12.81;69.00
35307;BME280;21420;52.196;21.416;2022-10-31T07:13:23;100765.21;;;13.89;69.75
35307;BME280;21420;52.196;21.416;2022-10-31T07:16:00;100761.23;;;14.81;69.36
35307;BME280;21420;52.196;21.416;2022-10-31T07:18:30;100764.23;;;15.84;69.49
35307;BME280;21420;52.196;21.416;2022-10-31T07:20:56;100765.09;;;16.70;69.06
35307;BME280;21420;52.196;21.416;2022-10-31T07:23:22;100764.83;;;17.24;68.08
35307;BME280;21420;52.196;21.416;2022-10-31T07:25:58;100761.86;;;17.94;68.23
35307;BME280;21420;52.196;21.416;2022-10-31T07:28:27;100758.63;;;18.59;68.01
35307;BME280;21420;52.196;21.416;2022-10-31T07:30:56;100765.91;;;19.23;67.56
35307;BME280;21420;52.196;21.416;2022-10-31T07:33:24;100767.00;;;19.66;67.15
35307;BME280;21420;52.196;21.416;2022-10-31T07:35:55;100770.75;;;19.95;65.70
35307;BME280;21420;52.196;21.416;2022-10-31T07:38:23;100782.97;;;20.33;65.92
35307;BME280;21420;52.196;21.416;2022-10-31T07:40:51;100777.06;;;20.52;64.99
35307;BME280;21420;52.196;21.416;2022-10-31T07:43:19;100770.18;;;20.95;65.28
35307;BME280;21420;52.196;21.416;2022-10-31T07:45:51;100772.95;;;21.20;64.41
35307;BME280;21420;52.196;21.416;2022-10-31T07:48:36;100782.31;;;21.15;62.72
35307;BME280;21420;52.196;21.416;2022-10-31T07:51:21;100784.06;;;20.59;62.22
35307;BME280;21420;52.196;21.416;2022-10-31T07:54:07;100781.02;;;20.41;61.91
35307;BME280;21420;52.196;21.416;2022-10-31T07:56:34;100779.75;;;20.16;61.24
35307;BME280;21420;52.196;21.416;2022-10-31T07:59:00;100771.94;;;20.02;61.14
35307;BME280;21420;52.196;21.416;2022-10-31T08:01:28;100770.39;;;20.04;61.53
35307;BME280;21420;52.196;21.416;2022-10-31T08:03:59;100767.44;;;20.14;61.24
35307;BME280;21420;52.196;21.416;2022-10-31T08:06:44;100770.44;;;20.26;61.41
35307;BME280;21420;52.196;21.416;2022-10-31T08:09:12;100770.09;;;20.49;61.66
35307;BME280;21420;52.196;21.416;2022-10-31T08:11:40;100767.59;;;20.82;61.48
35307;BME280;21420;52.196;21.416;2022-10-31T08:14:06;100773.35;;;20.94;61.33
35307;BME280;21420;52.196;21.416;2022-10-31T08:16:33;100777.45;;;21.80;63.18
35307;BME280;21420;52.196;21.416;2022-10-31T08:19:00;100774.38;;;22.44;62.00
35307;BME280;21420;52.196;21.416;2022-10-31T08:21:28;100774.91;;;23.33;62.96
35307;BME280;21420;52.196;21.416;2022-10-31T08:23:54;100773.30;;;24.23;62.87
35307;BME280;21420;52.196;21.416;2022-10-31T08:26:22;100778.39;;;25.10;63.04
35307;BME280;21420;52.196;21.416;2022-10-31T08:28:49;100784.92;;;25.70;61.91
35307;BME280;21420;52.196;21.416;2022-10-31T08:31:16;100789.44;;;25.76;60.19
35307;BME280;21420;52.196;21.416;2022-10-31T08:33:44;100788.48;;;25.63;59.93
35307;BME280;21420;52.196;21.416;2022-10-31T08:36:17;100794.68;;;25.74;59.75
35307;BME280;21420;52.196;21.416;2022-10-31T08:38:54;100783.23;;;25.96;58.91
35307;BME280;21420;52.196;21.416;2022-10-31T08:41:21;100791.15;;;25.70;58.24
35307;BME280;21420;52.196;21.416;2022-10-31T08:43:47;100786.21;;;25.98;58.77
35307;BME280;21420;52.196;21.416;2022-10-31T08:46:15;100793.05;;;25.53;56.61
35307;BME280;21420;52.196;21.416;2022-10-31T08:48:42;100790.81;;;25.44;58.15
35307;BME280;21420;52.196;21.416;2022-10-31T08:51:10;100798.30;;;26.14;58.27
35307;BME280;21420;52.196;21.416;2022-10-31T08:53:37;100798.82;;;26.17;57.45
35307;BME280;21420;52.196;21.416;2022-10-31T08:56:20;100797.11;;;26.04;57.03
35307;BME280;21420;52.196;21.416;2022-10-31T08:58:52;100796.64;;;26.25;57.15
35307;BME280;21420;52.196;21.416;2022-10-31T09:01:20;100799.70;;;26.14;56.21
35307;BME280;21420;52.196;21.416;2022-10-31T09:03:47;100805.95;;;26.58;57.82
35307;BME280;21420;52.196;21.416;2022-10-31T09:06:14;100805.02;;;27.47;58.00
35307;BME280;21420;52.196;21.416;2022-10-31T09:08:40;100796.07;;;27.03;56.13
35307;BME280;21420;52.196;21.416;2022-10-31T09:11:06;100801.78;;;27.08;57.07
35307;BME280;21420;52.196;21.416;2022-10-31T09:13:52;100796.69;;;26.94;55.82
35307;BME280;21420;52.196;21.416;2022-10-31T09:16:32;100800.10;;;26.86;55.16
35307;BME280;21420;52.196;21.416;2022-10-31T09:18:59;100802.33;;;27.27;56.94
35307;BME280;21420;52.196;21.416;2022-10-31T09:21:26;100805.74;;;28.01;57.16
35307;BME280;21420;52.196;21.416;2022-10-31T09:23:52;100807.22;;;28.19;56.38
35307;BME280;21420;52.196;21.416;2022-10-31T09:26:19;100804.38;;;28.27;55.68
35307;BME280;21420;52.196;21.416;2022-10-31T09:29:03;100806.13;;;28.29;55.30
35307;BME280;21420;52.196;21.416;2022-10-31T09:31:30;100802.23;;;28.78;55.14
35307;BME280;21420;52.196;21.416;2022-10-31T09:34:04;100806.41;;;28.60;55.30
35307;BME280;21420;52.196;21.416;2022-10-31T09:36:38;100798.80;;;28.65;54.70
35307;BME280;21420;52.196;21.416;2022-10-31T09:39:13;100804.19;;;28.73;54.69
35307;BME280;21420;52.196;21.416;2022-10-31T09:42:28;100806.61;;;28.92;54.41
35307;BME280;21420;52.196;21.416;2022-10-31T09:44:26;100804.33;;;29.25;55.33
35307;BME280;21420;52.196;21.416;2022-10-31T09:50:20;100796.29;;;29.36;53.50
35307;BME280;21420;52.196;21.416;2022-10-31T09:53:04;100793.25;;;29.31;53.09
35307;BME280;21420;52.196;21.416;2022-10-31T09:55:42;100801.96;;;28.98;52.62
35307;BME280;21420;52.196;21.416;2022-10-31T09:58:23;100799.05;;;29.14;53.15
35307;BME280;21420;52.196;21.416;2022-10-31T10:00:58;100798.10;;;29.30;54.09
35307;BME280;21420;52.196;21.416;2022-10-31T10:06:15;100797.59;;;29.62;52.32
35307;BME280;21420;52.196;21.416;2022-10-31T10:09:09;100797.44;;;29.43;52.10
35307;BME280;21420;52.196;21.416;2022-10-31T10:12:43;100793.36;;;28.97;51.96
35307;BME280;21420;52.196;21.416;2022-10-31T10:14:39;100797.67;;;28.76;51.60
35307;BME280;21420;52.196;21.416;2022-10-31T10:20:01;100795.91;;;28.48;51.19
35307;BME280;21420;52.196;21.416;2022-10-31T10:22:38;100793.80;;;28.31;51.42
35307;BME280;21420;52.196;21.416;2022-10-31T10:25:21;100789.20;;;28.03;51.86
35307;BME280;21420;52.196;21.416;2022-10-31T10:28:03;100786.59;;;28.43;52.29
35307;BME280;21420;52.196;21.416;2022-10-31T10:36:00;100790.73;;;28.72;51.75
35307;BME280;21420;52.196;21.416;2022-10-31T10:38:34;100786.24;;;28.49;51.13
35307;BME280;21420;52.196;21.416;2022-10-31T10:41:16;100782.63;;;28.61;52.19
35307;BME280;21420;52.196;21.416;2022-10-31T10:43:43;100776.58;;;29.23;51.94
35307;BME280;21420;52.196;21.416;2022-10-31T10:52:10;100770.19;;;28.67;51.06
35307;BME280;21420;52.196;21.416;2022-10-31T10:58:06;100777.22;;;29.80;53.10
35307;BME280;21420;52.196;21.416;2022-10-31T11:00:45;100768.03;;;30.51;51.70
35307;BME280;21420;52.196;21.416;2022-10-31T11:03:10;100768.99;;;29.68;50.29
35307;BME280;21420;52.196;21.416;2022-10-31T11:05:46;100770.20;;;29.28;51.16
35307;BME280;21420;52.196;21.416;2022-10-31T11:08:25;100766.08;;;29.81;50.63
35307;BME280;21420;52.196;21.416;2022-10-31T11:13:49;100765.60;;;29.21;50.56
35307;BME280;21420;52.196;21.416;2022-10-31T11:19:12;100770.58;;;29.34;49.83
35307;BME280;21420;52.196;21.416;2022-10-31T11:21:41;100768.05;;;28.89;49.46
35307;BME280;21420;52.196;21.416;2022-10-31T11:24:16;100770.44;;;28.77;50.26
35307;BME280;21420;52.196;21.416;2022-10-31T11:26:46;100771.92;;;29.47;51.21
35307;BME280;21420;52.196;21.416;2022-10-31T11:29:25;100773.64;;;29.10;49.05
35307;BME280;21420;52.196;21.416;2022-10-31T11:31:50;100772.06;;;28.96;49.93
35307;BME280;21420;52.196;21.416;2022-10-31T11:34:36;100772.77;;;29.35;50.29
35307;BME280;21420;52.196;21.416;2022-10-31T11:37:16;100774.40;;;29.80;51.01
35307;BME280;21420;52.196;21.416;2022-10-31T11:39:54;100777.30;;;29.54;50.06
35307;BME280;21420;52.196;21.416;2022-10-31T11:42:24;100770.95;;;29.23;49.30
35307;BME280;21420;52.196;21.416;2022-10-31T11:44:53;100768.16;;;29.28;49.82
35307;BME280;21420;52.196;21.416;2022-10-31T11:47:26;100769.80;;;29.38;49.69
35307;BME280;21420;52.196;21.416;2022-10-31T11:49:57;100762.20;;;29.26;49.17
35307;BME280;21420;52.196;21.416;2022-10-31T11:52:29;100756.96;;;28.26;47.12
35307;BME280;21420;52.196;21.416;2022-10-31T11:57:51;100748.44;;;27.45;48.71
35307;BME280;21420;52.196;21.416;2022-10-31T12:00:33;100747.94;;;27.92;49.91
35307;BME280;21420;52.196;21.416;2022-10-31T12:06:07;100758.06;;;26.57;47.20
35307;BME280;21420;52.196;21.416;2022-10-31T12:08:38;100756.23;;;26.03;48.05
35307;BME280;21420;52.196;21.416;2022-10-31T12:11:31;100759.59;;;26.42;49.51
35307;BME280;21420;52.196;21.416;2022-10-31T12:19:57;100761.70;;;25.70;47.62
35307;BME280;21420;52.196;21.416;2022-10-31T12:22:40;100761.49;;;25.29;48.35
35307;BME280;21420;52.196;21.416;2022-10-31T12:31:41;100747.48;;;25.61;49.19
35307;BME280;21420;52.196;21.416;2022-10-31T12:37:37;100750.59;;;25.23;48.06
35307;BME280;21420;52.196;21.416;2022-10-31T12:46:04;100740.76;;;24.06;49.33
35307;BME280;21420;52.196;21.416;2022-10-31T12:48:45;100742.27;;;24.57;50.35
35307;BME280;21420;52.196;21.416;2022-10-31T12:59:53;100734.44;;;24.29;48.54
35307;BME280;21420;52.196;21.416;2022-10-31T13:02:31;100728.28;;;23.64;48.54
35307;BME280;21420;52.196;21.416;2022-10-31T13:05:31;100734.59;;;23.53;49.04
35307;BME280;21420;52.196;21.416;2022-10-31T13:08:18;100733.91;;;23.23;49.00
35307;BME280;21420;52.196;21.416;2022-10-31T13:10:53;100727.30;;;22.76;48.81
35307;BME280;21420;52.196;21.416;2022-10-31T13:16:16;100735.53;;;22.42;49.20
35307;BME280;21420;52.196;21.416;2022-10-31T13:18:54;100734.05;;;22.19;49.19
35307;BME280;21420;52.196;21.416;2022-10-31T13:24:21;100726.68;;;21.80;49.61
35307;BME280;21420;52.196;21.416;2022-10-31T13:26:50;100729.82;;;21.93;50.16
35307;BME280;21420;52.196;21.416;2022-10-31T13:29:33;100727.69;;;21.75;49.88
35307;BME280;21420;52.196;21.416;2022-10-31T13:32:09;100724.78;;;21.52;49.70
35307;BME280;21420;52.196;21.416;2022-10-31T13:34:42;100728.59;;;21.29;49.96
35307;BME280;21420;52.196;21.416;2022-10-31T13:37:30;100723.62;;;21.46;50.83
35307;BME280;21420;52.196;21.416;2022-10-31T13:45:35;100732.62;;;21.10;50.49
35307;BME280;21420;52.196;21.416;2022-10-31T13:51:06;100732.75;;;20.53;50.36
35307;BME280;21420;52.196;21.416;2022-10-31T13:53:22;100734.19;;;20.71;51.28
35307;BME280;21420;52.196;21.416;2022-10-31T13:56:11;100731.44;;;20.78;51.38
35307;BME280;21420;52.196;21.416;2022-10-31T13:58:35;100734.59;;;20.59;50.62
35307;BME280;21420;52.196;21.416;2022-10-31T14:01:17;100734.33;;;20.36;50.78
35307;BME280;21420;52.196;21.416;2022-10-31T14:04:17;100728.28;;;20.06;50.61
35307;BME280;21420;52.196;21.416;2022-10-31T14:09:33;100737.95;;;19.88;51.56
35307;BME280;21420;52.196;21.416;2022-10-31T14:12:08;100735.80;;;19.91;51.61
35307;BME280;21420;52.196;21.416;2022-10-31T14:14:55;100731.14;;;19.71;51.15
35307;BME280;21420;52.196;21.416;2022-10-31T14:17:26;100730.31;;;19.32;51.05
35307;BME280;21420;52.196;21.416;2022-10-31T14:22:41;100723.45;;;18.67;51.23
35307;BME280;21420;52.196;21.416;2022-10-31T14:25:37;100719.88;;;18.46;51.39
35307;BME280;21420;52.196;21.416;2022-10-31T14:28:17;100723.61;;;18.23;51.50
35307;BME280;21420;52.196;21.416;2022-10-31T14:30:57;100718.98;;;17.97;51.63
35307;BME280;21420;52.196;21.416;2022-10-31T14:33:26;100722.55;;;17.67;51.75
35307;BME280;21420;52.196;21.416;2022-10-31T14:36:43;100729.08;;;17.39;51.86
35307;BME280;21420;52.196;21.416;2022-10-31T14:38:38;100722.10;;;17.22;52.19
35307;BME280;21420;52.196;21.416;2022-10-31T14:41:42;100723.22;;;17.04;52.33
35307;BME280;21420;52.196;21.416;2022-10-31T14:47:19;100724.10;;;16.62;52.60
35307;BME280;21420;52.196;21.416;2022-10-31T14:52:43;100715.80;;;16.29;53.14
35307;BME280;21420;52.196;21.416;2022-10-31T14:55:13;100721.63;;;16.14;53.04
35307;BME280;21420;52.196;21.416;2022-10-31T14:57:44;100721.24;;;15.83;52.92
35307;BME280;21420;52.196;21.416;2022-10-31T15:00:17;100720.16;;;15.52;53.07
35307;BME280;21420;52.196;21.416;2022-10-31T15:03:04;100726.66;;;15.25;53.25
35307;BME280;21420;52.196;21.416;2022-10-31T15:05:35;100725.93;;;15.02;53.46
35307;BME280;21420;52.196;21.416;2022-10-31T15:08:12;100729.44;;;14.77;53.61
35307;BME280;21420;52.196;21.416;2022-10-31T15:10:44;100727.29;;;14.54;53.91
35307;BME280;21420;52.196;21.416;2022-10-31T15:13:20;100729.52;;;14.43;54.12
35307;BME280;21420;52.196;21.416;2022-10-31T15:15:49;100729.36;;;14.29;54.35
35307;BME280;21420;52.196;21.416;2022-10-31T15:18:20;100727.14;;;14.19;54.51
35307;BME280;21420;52.196;21.416;2022-10-31T15:20:50;100725.91;;;14.10;54.75
35307;BME280;21420;52.196;21.416;2022-10-31T15:23:25;100725.25;;;14.07;54.98